AAL156 KSEA-EGLL
Flight info
| Callsign | AAL156 |
|---|---|
| Flight time | N/A |
| Altitude | 33000 |
| Route | ALPSE DCT YDC DCT ROMRA DCT 5730N11000W/N0487F350 6330N10000W 67N090W 69N080W 70N070W/M084F370 DCT ADSAM DCT 70N060W 69N050W 68N040W 66N030W 63N020W DCT ERAKA/N0480F370 DCT ETSOM DCT AKOMU DCT VAMEB DCT NUGRA |
| Aircraft | B772/H-SDE2E3FGHIJ5LORVWXY/LB1D1 |
Departure
| Time | 2026-05-04 04:14 |
|---|---|
| Airport | Seattle–Tacoma International Airport (KSEA) |
Arrival
| Time | N/A |
|---|---|
| Airport | London Heathrow Airport (EGLL) |
| Time | Latitude | Longitude | Altitude | Speed | Heading |
|---|---|---|---|---|---|
| 2026-05-04 03:22 | 47.43802 | -122.30413 | 388 ft | 0 kts | 44° |
| 2026-05-04 03:58 | 47.43798 | -122.30418 | 388 ft | 4 kts | 45° |
| 2026-05-04 03:59 | 47.43780 | -122.30445 | 388 ft | 3 kts | 37° |
| 2026-05-04 03:59 | 47.43763 | -122.30465 | 387 ft | 4 kts | 34° |
| 2026-05-04 03:59 | 47.43747 | -122.30478 | 386 ft | 4 kts | 349° |
| 2026-05-04 03:59 | 47.43727 | -122.30468 | 385 ft | 4 kts | 315° |
| 2026-05-04 04:00 | 47.43719 | -122.30447 | 384 ft | 4 kts | 265° |
| 2026-05-04 04:00 | 47.43722 | -122.30409 | 385 ft | 3 kts | 270° |
| 2026-05-04 04:00 | 47.43722 | -122.30398 | 385 ft | 1 kts | 270° |
| 2026-05-04 04:07 | 47.43722 | -122.30407 | 385 ft | 2 kts | 271° |
| 2026-05-04 04:07 | 47.43722 | -122.30433 | 385 ft | 4 kts | 271° |
| 2026-05-04 04:07 | 47.43723 | -122.30478 | 384 ft | 4 kts | 271° |
| 2026-05-04 04:08 | 47.43721 | -122.30522 | 383 ft | 4 kts | 259° |
| 2026-05-04 04:08 | 47.43698 | -122.30554 | 381 ft | 5 kts | 200° |
| 2026-05-04 04:08 | 47.43649 | -122.30562 | 379 ft | 9 kts | 181° |
| 2026-05-04 04:08 | 47.43585 | -122.30562 | 377 ft | 9 kts | 178° |
| 2026-05-04 04:09 | 47.43521 | -122.30560 | 378 ft | 9 kts | 179° |
| 2026-05-04 04:09 | 47.43455 | -122.30559 | 373 ft | 10 kts | 180° |
| 2026-05-04 04:09 | 47.43389 | -122.30561 | 372 ft | 10 kts | 180° |
| 2026-05-04 04:09 | 47.43322 | -122.30562 | 373 ft | 10 kts | 180° |
| 2026-05-04 04:10 | 47.43256 | -122.30566 | 365 ft | 10 kts | 188° |
| 2026-05-04 04:10 | 47.43198 | -122.30605 | 372 ft | 7 kts | 218° |
| 2026-05-04 04:10 | 47.43178 | -122.30641 | 369 ft | 2 kts | 240° |
| 2026-05-04 04:10 | 47.43177 | -122.30650 | 367 ft | 0 kts | 260° |
| 2026-05-04 04:12 | 47.43172 | -122.30696 | 368 ft | 7 kts | 261° |
| 2026-05-04 04:12 | 47.43165 | -122.30766 | 362 ft | 5 kts | 263° |
| 2026-05-04 04:12 | 47.43172 | -122.30796 | 368 ft | 3 kts | 311° |
| 2026-05-04 04:12 | 47.43192 | -122.30801 | 367 ft | 2 kts | 0° |
| 2026-05-04 04:13 | 47.43197 | -122.30801 | 366 ft | 0 kts | 1° |
| 2026-05-04 04:13 | 47.43296 | -122.30802 | 366 ft | 38 kts | 359° |
| 2026-05-04 04:13 | 47.43784 | -122.30800 | 380 ft | 100 kts | 0° |
| 2026-05-04 04:14 | 47.44668 | -122.30791 | 403 ft | 153 kts | 0° |
| 2026-05-04 04:14 | 47.45836 | -122.30779 | 719 ft | 170 kts | 359° |
| 2026-05-04 04:14 | 47.46982 | -122.30790 | 1396 ft | 168 kts | 358° |
| 2026-05-04 04:14 | 47.48150 | -122.30865 | 2006 ft | 167 kts | 358° |
| 2026-05-04 04:15 | 47.49378 | -122.30966 | 2225 ft | 187 kts | 357° |
| 2026-05-04 04:15 | 47.50734 | -122.31092 | 2419 ft | 204 kts | 357° |
| 2026-05-04 04:15 | 47.52230 | -122.31239 | 2538 ft | 226 kts | 356° |
| 2026-05-04 04:15 | 47.53864 | -122.31396 | 2759 ft | 243 kts | 357° |
| 2026-05-04 04:16 | 47.55588 | -122.31558 | 3191 ft | 252 kts | 357° |
| 2026-05-04 04:16 | 47.57356 | -122.31715 | 3713 ft | 258 kts | 356° |
| 2026-05-04 04:16 | 47.59162 | -122.31893 | 4304 ft | 261 kts | 356° |
| 2026-05-04 04:16 | 47.60956 | -122.32082 | 4879 ft | 263 kts | 356° |
| 2026-05-04 04:17 | 47.62795 | -122.32274 | 5445 ft | 266 kts | 356° |
| 2026-05-04 04:17 | 47.64648 | -122.32440 | 5970 ft | 267 kts | 2° |
| 2026-05-04 04:17 | 47.66493 | -122.31955 | 6370 ft | 274 kts | 16° |
| 2026-05-04 04:17 | 47.68316 | -122.31082 | 6920 ft | 276 kts | 18° |
| 2026-05-04 04:18 | 47.70137 | -122.30150 | 7485 ft | 277 kts | 18° |
| 2026-05-04 04:18 | 47.71971 | -122.29221 | 8015 ft | 280 kts | 18° |
| 2026-05-04 04:18 | 47.73826 | -122.28304 | 8588 ft | 282 kts | 18° |
| 2026-05-04 04:18 | 47.75704 | -122.27399 | 9115 ft | 283 kts | 14° |
| 2026-05-04 04:19 | 47.77592 | -122.26516 | 9563 ft | 287 kts | 18° |
| 2026-05-04 04:19 | 47.79514 | -122.25602 | 10062 ft | 290 kts | 18° |
| 2026-05-04 04:19 | 47.81460 | -122.24685 | 10387 ft | 300 kts | 17° |
| 2026-05-04 04:19 | 47.83493 | -122.23735 | 10512 ft | 319 kts | 17° |
| 2026-05-04 04:20 | 47.85683 | -122.22717 | 10676 ft | 340 kts | 17° |
| 2026-05-04 04:20 | 47.88009 | -122.21639 | 10845 ft | 360 kts | 17° |
| 2026-05-04 04:20 | 47.90437 | -122.20515 | 11297 ft | 370 kts | 17° |
| 2026-05-04 04:20 | 47.92073 | -122.19757 | 11712 ft | 374 kts | 17° |
| 2026-05-04 04:21 | 47.94580 | -122.18597 | 12342 ft | 380 kts | 17° |
| 2026-05-04 04:21 | 47.97124 | -122.17418 | 13055 ft | 385 kts | 17° |
| 2026-05-04 04:21 | 47.99695 | -122.16224 | 13828 ft | 388 kts | 17° |
| 2026-05-04 04:21 | 48.02286 | -122.15021 | 14506 ft | 391 kts | 17° |
| 2026-05-04 04:22 | 48.04898 | -122.13806 | 15215 ft | 395 kts | 17° |
| 2026-05-04 04:22 | 48.07526 | -122.12583 | 15919 ft | 398 kts | 17° |
| 2026-05-04 04:22 | 48.10187 | -122.11343 | 16617 ft | 402 kts | 17° |
| 2026-05-04 04:22 | 48.12874 | -122.10087 | 17319 ft | 404 kts | 18° |
| 2026-05-04 04:23 | 48.15497 | -122.08503 | 17980 ft | 409 kts | 27° |
| 2026-05-04 04:23 | 48.17963 | -122.06330 | 18610 ft | 413 kts | 33° |
| 2026-05-04 04:23 | 48.20215 | -122.03707 | 19285 ft | 415 kts | 41° |
| 2026-05-04 04:23 | 48.22353 | -122.00805 | 19983 ft | 416 kts | 42° |
| 2026-05-04 04:24 | 48.24487 | -121.97853 | 20630 ft | 418 kts | 42° |
| 2026-05-04 04:24 | 48.26626 | -121.94882 | 21300 ft | 420 kts | 42° |
| 2026-05-04 04:24 | 48.28777 | -121.91898 | 21911 ft | 422 kts | 42° |
| 2026-05-04 04:24 | 48.30945 | -121.88899 | 22534 ft | 424 kts | 42° |
| 2026-05-04 04:25 | 48.33125 | -121.85892 | 23117 ft | 426 kts | 42° |
| 2026-05-04 04:25 | 48.35324 | -121.82865 | 23608 ft | 430 kts | 41° |
| 2026-05-04 04:25 | 48.37537 | -121.79821 | 24045 ft | 432 kts | 42° |
| 2026-05-04 04:25 | 48.39766 | -121.76755 | 24501 ft | 435 kts | 41° |
| 2026-05-04 04:26 | 48.42003 | -121.73674 | 24968 ft | 436 kts | 42° |
| 2026-05-04 04:26 | 48.44247 | -121.70581 | 25424 ft | 437 kts | 42° |
| 2026-05-04 04:26 | 48.46465 | -121.67519 | 25846 ft | 440 kts | 42° |
| 2026-05-04 04:26 | 48.48729 | -121.64389 | 26243 ft | 442 kts | 42° |
| 2026-05-04 04:27 | 48.50996 | -121.61251 | 26617 ft | 443 kts | 41° |
| 2026-05-04 04:27 | 48.53270 | -121.58101 | 26997 ft | 444 kts | 42° |
| 2026-05-04 04:27 | 48.55553 | -121.54931 | 27293 ft | 447 kts | 42° |
| 2026-05-04 04:27 | 48.57849 | -121.51740 | 27648 ft | 449 kts | 42° |
| 2026-05-04 04:28 | 48.60157 | -121.48530 | 28005 ft | 450 kts | 42° |
| 2026-05-04 04:28 | 48.62464 | -121.45314 | 28294 ft | 453 kts | 42° |
| 2026-05-04 04:28 | 48.64782 | -121.42081 | 28599 ft | 454 kts | 42° |
| 2026-05-04 04:28 | 48.67078 | -121.38874 | 28866 ft | 456 kts | 42° |
| 2026-05-04 04:29 | 48.69441 | -121.35571 | 29124 ft | 457 kts | 42° |
| 2026-05-04 04:29 | 48.71752 | -121.32335 | 29377 ft | 459 kts | 42° |
| 2026-05-04 04:29 | 48.74098 | -121.29043 | 29675 ft | 460 kts | 42° |
| 2026-05-04 04:29 | 48.76447 | -121.25743 | 29915 ft | 461 kts | 42° |
| 2026-05-04 04:30 | 48.78800 | -121.22435 | 30121 ft | 461 kts | 42° |
| 2026-05-04 04:30 | 48.81151 | -121.19124 | 30343 ft | 461 kts | 42° |
| 2026-05-04 04:30 | 48.83496 | -121.15821 | 30528 ft | 460 kts | 42° |
| 2026-05-04 04:30 | 48.85833 | -121.12522 | 30830 ft | 457 kts | 42° |
| 2026-05-04 04:31 | 48.88154 | -121.09239 | 31117 ft | 455 kts | 42° |
| 2026-05-04 04:31 | 48.90464 | -121.05966 | 31368 ft | 454 kts | 42° |
| 2026-05-04 04:31 | 48.92771 | -121.02697 | 31605 ft | 453 kts | 41° |
| 2026-05-04 04:31 | 48.95077 | -120.99425 | 31875 ft | 452 kts | 42° |
| 2026-05-04 04:32 | 48.97371 | -120.96165 | 32145 ft | 450 kts | 42° |
| 2026-05-04 04:32 | 48.99653 | -120.92918 | 32385 ft | 449 kts | 42° |
| 2026-05-04 04:32 | 49.01935 | -120.89667 | 32582 ft | 448 kts | 41° |
| 2026-05-04 04:32 | 49.04206 | -120.86425 | 32813 ft | 448 kts | 42° |
| 2026-05-04 04:33 | 49.08763 | -120.79912 | 32938 ft | 449 kts | 41° |
| 2026-05-04 04:33 | 49.11041 | -120.76647 | 33220 ft | 447 kts | 41° |
| 2026-05-04 04:33 | 49.13297 | -120.73410 | 33590 ft | 443 kts | 41° |
| 2026-05-04 04:34 | 49.15510 | -120.70230 | 33919 ft | 440 kts | 41° |
| 2026-05-04 04:34 | 49.17736 | -120.67028 | 34147 ft | 439 kts | 41° |
| 2026-05-04 04:34 | 49.19959 | -120.63827 | 34337 ft | 439 kts | 41° |
| 2026-05-04 04:34 | 49.22182 | -120.60623 | 34480 ft | 439 kts | 41° |
| 2026-05-04 04:35 | 49.24406 | -120.57414 | 34640 ft | 439 kts | 41° |
| 2026-05-04 04:35 | 49.26628 | -120.54202 | 34781 ft | 439 kts | 41° |
| 2026-05-04 04:35 | 49.31079 | -120.47754 | 34900 ft | 440 kts | 41° |